Time;durP1;ratioP1;P1;durP2;ratioP2;P2;SDS_P1;SDS_P2;PMS_P1;PMS_P2;Temp;Humidity;BMP_temperature;BMP_pressure;BME280_temperature;BME280_humidity;BME280_pressure;Samples;Min_cycle;Max_cycle;Signal;HPM_P1;HPM_P2
2021/01/15 00:00:25;;;;;;;28.00;14.88;;;;;;;;;;5039729;28;20018;-93
2021/01/15 00:02:52;;;;;;;30.42;15.13;;;;;;;;;;5038809;28;20029;-93
2021/01/15 00:05:18;;;;;;;23.52;13.10;;;;;;;;;;5039885;28;20025;-95
2021/01/15 00:10:48;;;;;;;25.33;13.85;;;;;;;;;;5039577;28;20478;-95
2021/01/15 00:13:14;;;;;;;19.00;11.02;;;;;;;;;;5039798;28;20041;-94
2021/01/15 00:15:40;;;;;;;28.42;12.30;;;;;;;;;;5039575;28;20041;-95
2021/01/15 00:18:06;;;;;;;28.75;13.73;;;;;;;;;;5039887;28;20029;-94
2021/01/15 00:20:32;;;;;;;27.65;13.32;;;;;;;;;;5039409;28;20033;-93
2021/01/15 00:22:58;;;;;;;22.35;13.10;;;;;;;;;;5038397;28;20069;-93
2021/01/15 00:25:24;;;;;;;20.67;12.50;;;;;;;;;;5039310;28;20037;-95
2021/01/15 00:27:50;;;;;;;20.73;11.95;;;;;;;;;;5039535;28;20036;-94
2021/01/15 00:30:17;;;;;;;21.60;11.95;;;;;;;;;;5038316;28;20033;-92
2021/01/15 00:32:43;;;;;;;19.77;11.52;;;;;;;;;;5039044;28;20026;-93
2021/01/15 00:35:09;;;;;;;20.63;12.25;;;;;;;;;;5038306;28;20108;-92
2021/01/15 00:37:38;;;;;;;25.38;14.65;;;;;;;;;;5038309;28;20393;-92
2021/01/15 00:40:05;;;;;;;22.25;12.55;;;;;;;;;;5039455;28;20359;-91
2021/01/15 00:42:32;;;;;;;22.85;12.57;;;;;;;;;;5039329;28;20091;-91
2021/01/15 00:44:58;;;;;;;22.33;11.40;;;;;;;;;;5038108;28;20021;-91
2021/01/15 00:47:24;;;;;;;24.48;10.82;;;;;;;;;;5038852;28;20049;-93
2021/01/15 00:49:50;;;;;;;23.75;10.80;;;;;;;;;;5039139;28;20057;-93
2021/01/15 00:55:20;;;;;;;26.08;11.20;;;;;;;;;;5038616;28;20121;-93
2021/01/15 00:57:46;;;;;;;25.48;12.55;;;;;;;;;;5037897;28;20408;-93
2021/01/15 01:05:43;;;;;;;19.80;10.75;;;;;;;;;;5039519;28;20117;-93
2021/01/15 01:08:10;;;;;;;20.33;11.15;;;;;;;;;;5038869;28;20064;-94
2021/01/15 01:10:38;;;;;;;20.63;12.07;;;;;;;;;;5004435;28;20113;-94
2021/01/15 01:13:04;;;;;;;18.83;11.32;;;;;;;;;;5038691;28;20376;-94
2021/01/15 01:15:30;;;;;;;17.85;10.95;;;;;;;;;;5037515;28;20024;-93
2021/01/15 01:17:57;;;;;;;18.88;10.27;;;;;;;;;;5038580;28;20029;-93
2021/01/15 01:20:23;;;;;;;16.63;9.45;;;;;;;;;;5038289;28;20486;-93
2021/01/15 01:29:23;;;;;;;15.23;8.93;;;;;;;;;;5034372;28;20056;-93
2021/01/15 01:31:49;;;;;;;15.30;9.20;;;;;;;;;;5038606;28;20026;-94
2021/01/15 01:34:15;;;;;;;15.15;9.57;;;;;;;;;;5038085;28;20064;-94
2021/01/15 01:36:41;;;;;;;14.52;8.95;;;;;;;;;;5038275;28;20400;-93
2021/01/15 01:45:51;;;;;;;14.32;8.65;;;;;;;;;;5038166;28;20028;-92
2021/01/15 01:48:17;;;;;;;;;;;;;;;;;;5037141;28;20072;-92
2021/01/15 01:50:43;;;;;;;15.35;8.48;;;;;;;;;;5038058;28;19909;-93
2021/01/15 01:59:17;;;;;;;22.95;12.02;;;;;;;;;;5037890;28;20109;-92
2021/01/15 02:01:43;;;;;;;18.45;10.52;;;;;;;;;;5037868;28;20025;-92
2021/01/15 02:04:09;;;;;;;20.90;9.93;;;;;;;;;;5037886;28;20021;-91
2021/01/15 02:06:37;;;;;;;19.02;10.38;;;;;;;;;;5037508;28;20407;-92
2021/01/15 02:17:33;;;;;;;20.35;10.23;;;;;;;;;;5087368;22;20064;-91
2021/01/15 02:44:02;;;;;;;30.50;12.60;;;;;;;;;;5058369;23;20050;-91
2021/01/15 02:52:22;;;;;;;16.35;9.05;;;;;;;;;;5001931;28;20480;-91
2021/01/15 02:54:48;;;;;;;16.92;9.52;;;;;;;;;;5001926;28;20110;-91
2021/01/15 02:57:14;;;;;;;15.40;9.23;;;;;;;;;;5001425;28;20030;-91
2021/01/15 02:59:40;;;;;;;14.57;8.68;;;;;;;;;;5000598;28;20054;-90
2021/01/15 03:05:15;;;;;;;15.95;9.00;;;;;;;;;;5002021;28;20046;-90
2021/01/15 03:22:45;;;;;;;13.65;8.02;;;;;;;;;;5003347;28;20093;-94
2021/01/15 03:25:12;;;;;;;18.77;9.93;;;;;;;;;;5001428;28;20033;-94
2021/01/15 03:27:42;;;;;;;32.58;11.57;;;;;;;;;;5001368;28;20030;-93
2021/01/15 03:30:09;;;;;;;21.88;10.52;;;;;;;;;;5001247;28;20142;-94
2021/01/15 03:32:35;;;;;;;20.15;9.73;;;;;;;;;;5000840;28;20022;-93
2021/01/15 03:35:01;;;;;;;27.42;11.52;;;;;;;;;;5001079;28;20026;-94
2021/01/15 03:40:30;;;;;;;;;;;;;;;;;;5001532;28;20061;-94
2021/01/15 03:42:57;;;;;;;37.22;15.05;;;;;;;;;;4999897;28;19910;-94
2021/01/15 03:45:23;;;;;;;27.35;12.30;;;;;;;;;;4998967;28;20031;-94
2021/01/15 03:47:50;;;;;;;20.40;11.20;;;;;;;;;;5000796;28;20028;-95
2021/01/15 03:50:16;;;;;;;31.65;15.70;;;;;;;;;;5000814;28;20046;-95
2021/01/15 03:55:47;;;;;;;21.58;12.23;;;;;;;;;;5001633;28;20150;-93
2021/01/15 04:00:59;;;;;;;37.72;17.60;;;;;;;;;;5001230;28;20089;-94
2021/01/15 04:06:09;;;;;;;27.60;14.13;;;;;;;;;;5000799;28;20037;-93
2021/01/15 04:18:14;;;;;;;17.52;9.68;;;;;;;;;;4990590;28;20065;-93
2021/01/15 04:20:40;;;;;;;18.20;9.75;;;;;;;;;;4999997;28;20041;-92
2021/01/15 04:23:08;;;;;;;22.33;12.77;;;;;;;;;;5000273;28;20023;-92
2021/01/15 04:25:34;;;;;;;24.63;12.32;;;;;;;;;;5000194;28;20106;-91
2021/01/15 04:28:02;;;;;;;18.67;11.52;;;;;;;;;;5000081;28;20073;-94
2021/01/15 04:30:30;;;;;;;21.73;13.07;;;;;;;;;;5000244;28;20026;-93
2021/01/15 04:32:56;;;;;;;23.40;13.85;;;;;;;;;;5000046;28;20018;-93
2021/01/15 04:35:22;;;;;;;21.70;12.98;;;;;;;;;;4999927;28;20030;-93
2021/01/15 04:41:07;;;;;;;18.02;10.80;;;;;;;;;;5035674;23;20047;-92
2021/01/15 04:43:34;;;;;;;22.75;12.55;;;;;;;;;;4999695;28;20034;-93
2021/01/15 04:49:04;;;;;;;22.23;12.35;;;;;;;;;;4999821;28;20049;-92
2021/01/15 04:51:36;;;;;;;24.83;12.20;;;;;;;;;;4999389;28;20046;-90
2021/01/15 04:54:05;;;;;;;23.52;13.18;;;;;;;;;;4999548;28;20093;-91
2021/01/15 04:56:36;;;;;;;31.92;14.10;;;;;;;;;;4997526;28;20037;-90
2021/01/15 04:59:03;;;;;;;30.23;15.57;;;;;;;;;;4998629;28;20425;-92
2021/01/15 05:01:46;;;;;;;25.77;13.98;;;;;;;;;;4999288;28;20026;-91
2021/01/15 05:04:14;;;;;;;42.83;19.20;;;;;;;;;;4997989;28;20130;-91
2021/01/15 05:12:37;;;;;;;37.45;15.70;;;;;;;;;;5035152;23;20061;-92
2021/01/15 05:15:04;;;;;;;39.25;18.80;;;;;;;;;;4998923;28;20030;-93
2021/01/15 05:17:30;;;;;;;41.97;20.75;;;;;;;;;;4998229;28;20030;-93
2021/01/15 05:19:57;;;;;;;42.25;18.60;;;;;;;;;;4998916;28;20026;-93
2021/01/15 05:22:24;;;;;;;29.30;15.10;;;;;;;;;;4998891;28;20030;-92
2021/01/15 05:30:58;;;;;;;32.53;18.80;;;;;;;;;;4998937;28;20513;-94
2021/01/15 05:33:24;;;;;;;50.08;24.73;;;;;;;;;;4997728;28;20160;-95
2021/01/15 05:35:52;;;;;;;75.85;33.97;;;;;;;;;;4997838;28;20405;-94
2021/01/15 05:41:41;;;;;;;58.50;27.88;;;;;;;;;;4998861;28;20032;-94
2021/01/15 05:44:07;;;;;;;60.25;27.08;;;;;;;;;;4998463;28;20034;-93
2021/01/15 05:46:34;;;;;;;62.95;25.88;;;;;;;;;;4998778;28;20105;-94
2021/01/15 05:49:11;;;;;;;65.07;25.23;;;;;;;;;;4998673;28;20320;-93
2021/01/15 05:51:38;;;;;;;54.88;21.98;;;;;;;;;;4997538;28;20022;-91
2021/01/15 05:54:41;;;;;;;54.60;21.13;;;;;;;;;;4997145;28;20038;-94
2021/01/15 05:57:08;;;;;;;63.97;20.85;;;;;;;;;;4998293;28;20027;-93
2021/01/15 05:59:42;;;;;;;72.60;24.13;;;;;;;;;;4998695;28;20034;-92
2021/01/15 06:02:09;;;;;;;73.03;28.65;;;;;;;;;;4997498;28;20062;-92
2021/01/15 06:04:36;;;;;;;65.63;22.23;;;;;;;;;;4998586;28;20109;-94
2021/01/15 06:07:08;;;;;;;46.25;19.58;;;;;;;;;;4981289;28;20329;-92
2021/01/15 06:12:41;;;;;;;46.55;18.60;;;;;;;;;;4977392;28;20113;-94
2021/01/15 06:15:08;;;;;;;41.78;17.75;;;;;;;;;;4998554;28;20110;-92
2021/01/15 06:17:38;;;;;;;44.10;20.38;;;;;;;;;;4997373;28;20460;-93
2021/01/15 06:20:05;;;;;;;52.53;25.27;;;;;;;;;;4998227;28;20038;-93
2021/01/15 06:22:32;;;;;;;71.28;24.58;;;;;;;;;;4997149;28;20033;-92
2021/01/15 06:31:08;;;;;;;60.85;30.08;;;;;;;;;;4998442;28;20113;-95
2021/01/15 06:33:35;;;;;;;55.42;24.30;;;;;;;;;;4996692;28;20072;-91
2021/01/15 06:36:04;;;;;;;69.03;26.20;;;;;;;;;;4998271;28;20085;-91
2021/01/15 06:47:47;;;;;;;69.50;29.67;;;;;;;;;;4997914;28;20098;-94
2021/01/15 06:50:15;;;;;;;75.30;34.67;;;;;;;;;;4998425;28;20026;-92
2021/01/15 06:52:42;;;;;;;76.32;35.63;;;;;;;;;;4998381;28;20109;-93
2021/01/15 06:55:14;;;;;;;62.40;29.58;;;;;;;;;;4997809;28;20110;-94
2021/01/15 06:57:43;;;;;;;75.85;47.22;;;;;;;;;;4998076;28;20038;-93
2021/01/15 07:00:10;;;;;;;58.45;33.58;;;;;;;;;;4998149;28;20034;-94
2021/01/15 07:06:14;;;;;;;106.00;52.03;;;;;;;;;;4998344;28;20452;-93
2021/01/15 07:08:53;;;;;;;78.85;39.15;;;;;;;;;;4998287;28;20038;-92
2021/01/15 07:14:09;;;;;;;60.20;26.92;;;;;;;;;;4998787;28;20110;-93
2021/01/15 07:57:45;;;;;;;82.03;34.38;;;;;;;;;;5962981;23;20069;-96
2021/01/15 08:11:58;;;;;;;56.25;25.17;;;;;;;;;;5092382;23;20054;-94
2021/01/15 08:27:49;;;;;;;130.65;42.85;;;;;;;;;;5313488;23;20052;-96
2021/01/15 08:54:28;;;;;;;102.40;38.33;;;;;;;;;;5126455;23;20140;-92
2021/01/15 09:57:23;;;;;;;66.53;31.77;;;;;;;;;;2222018;23;20312;-94
2021/01/15 09:59:55;;;;;;;69.22;31.50;;;;;;;;;;5003896;28;20440;-96
2021/01/15 10:02:47;;;;;;;78.72;36.13;;;;;;;;;;4991585;28;20409;-96
2021/01/15 10:18:51;;;;;;;116.88;48.17;;;;;;;;;;5364402;23;20077;-96
2021/01/15 10:21:21;;;;;;;98.70;46.58;;;;;;;;;;5042371;28;20021;-91
2021/01/15 10:23:47;;;;;;;97.43;49.83;;;;;;;;;;5021976;28;20108;-95
2021/01/15 10:26:20;;;;;;;69.25;36.00;;;;;;;;;;5038167;28;20026;-96
2021/01/15 10:28:46;;;;;;;96.05;40.75;;;;;;;;;;5037716;28;20026;-95
2021/01/15 10:31:12;;;;;;;66.00;34.08;;;;;;;;;;5019931;28;20323;-95
2021/01/15 10:33:38;;;;;;;47.65;25.63;;;;;;;;;;5037922;28;20022;-95
2021/01/15 10:36:08;;;;;;;47.70;24.10;;;;;;;;;;5037761;28;20467;-95
2021/01/15 10:38:36;;;;;;;50.72;27.10;;;;;;;;;;5020300;28;20045;-95
2021/01/15 10:41:02;;;;;;;46.00;22.98;;;;;;;;;;5020129;28;20021;-94
2021/01/15 10:43:28;;;;;;;54.70;27.42;;;;;;;;;;5037462;28;20071;-94
2021/01/15 10:45:54;;;;;;;40.03;22.58;;;;;;;;;;5038140;28;20430;-96
2021/01/15 10:48:20;;;;;;;61.15;28.70;;;;;;;;;;5037512;28;20037;-96
2021/01/15 10:50:46;;;;;;;38.80;22.30;;;;;;;;;;5037469;28;20025;-95
2021/01/15 10:53:12;;;;;;;39.90;21.83;;;;;;;;;;5035747;28;20065;-94
2021/01/15 10:55:39;;;;;;;35.92;19.08;;;;;;;;;;5040309;28;20018;-96
2021/01/15 10:58:05;;;;;;;31.85;17.13;;;;;;;;;;5043625;28;20388;-95
2021/01/15 11:00:34;;;;;;;43.17;21.45;;;;;;;;;;5044401;28;20024;-96
2021/01/15 11:03:00;;;;;;;33.33;17.48;;;;;;;;;;5046829;28;20068;-96
2021/01/15 11:05:26;;;;;;;35.92;17.77;;;;;;;;;;5046240;28;20022;-95
2021/01/15 11:07:52;;;;;;;39.15;20.50;;;;;;;;;;5029175;28;20026;-95
2021/01/15 11:13:22;;;;;;;40.00;19.20;;;;;;;;;;5048910;28;20060;-95
2021/01/15 11:15:49;;;;;;;37.13;17.85;;;;;;;;;;5046436;28;20022;-96
2021/01/15 11:18:15;;;;;;;37.42;17.35;;;;;;;;;;5046458;28;20101;-95
2021/01/15 11:36:00;;;;;;;42.17;23.17;;;;;;;;;;5045240;28;20105;-95
2021/01/15 11:38:28;;;;;;;46.92;26.55;;;;;;;;;;5042197;28;20040;-94
2021/01/15 11:40:54;;;;;;;47.05;25.08;;;;;;;;;;5040905;28;20032;-95
2021/01/15 11:43:20;;;;;;;57.58;27.30;;;;;;;;;;5041565;28;20071;-96
2021/01/15 11:45:46;;;;;;;48.25;26.40;;;;;;;;;;5041076;28;20029;-95
2021/01/15 11:48:12;;;;;;;43.97;22.95;;;;;;;;;;5042447;28;20033;-96
2021/01/15 11:50:38;;;;;;;39.35;20.42;;;;;;;;;;5041684;28;20033;-95
2021/01/15 11:53:04;;;;;;;41.60;21.77;;;;;;;;;;5044396;28;20018;-94
2021/01/15 11:55:30;;;;;;;44.88;22.05;;;;;;;;;;5026124;28;20037;-95
2021/01/15 11:58:10;;;;;;;49.88;23.35;;;;;;;;;;5027680;28;20036;-94
2021/01/15 12:00:36;;;;;;;54.08;29.13;;;;;;;;;;5045695;28;20411;-96
2021/01/15 12:03:02;;;;;;;59.33;31.60;;;;;;;;;;5045062;28;20021;-95
2021/01/15 12:05:28;;;;;;;52.83;27.65;;;;;;;;;;5043700;28;20112;-96
2021/01/15 12:07:54;;;;;;;59.25;31.05;;;;;;;;;;5039652;28;20307;-85
2021/01/15 12:10:20;;;;;;;56.33;30.25;;;;;;;;;;5040292;28;20025;-94
2021/01/15 12:12:46;;;;;;;57.10;29.73;;;;;;;;;;5039680;28;20351;-95
2021/01/15 12:15:12;;;;;;;35.53;21.42;;;;;;;;;;5038762;28;20030;-92
2021/01/15 12:17:38;;;;;;;35.42;20.65;;;;;;;;;;5038779;28;20044;-93
2021/01/15 12:20:12;;;;;;;33.95;19.48;;;;;;;;;;5044697;28;20076;-95
2021/01/15 12:33:17;;;;;;;31.05;18.52;;;;;;;;;;5904967;23;21015;-93
2021/01/15 12:35:47;;;;;;;40.50;21.60;;;;;;;;;;5027844;28;20033;-95
2021/01/15 12:38:14;;;;;;;40.45;22.48;;;;;;;;;;5028712;28;20504;-91
2021/01/15 12:40:42;;;;;;;40.17;22.10;;;;;;;;;;5046192;28;20052;-96
2021/01/15 12:43:09;;;;;;;47.38;25.15;;;;;;;;;;5046566;28;20063;-95
2021/01/15 12:48:13;;;;;;;45.08;24.63;;;;;;;;;;5063711;23;20057;-96
2021/01/15 12:50:39;;;;;;;51.20;27.95;;;;;;;;;;5041524;28;20024;-95
2021/01/15 12:53:05;;;;;;;57.33;30.48;;;;;;;;;;5040751;28;20293;-94
2021/01/15 12:55:32;;;;;;;66.50;32.15;;;;;;;;;;5040128;28;20017;-96
2021/01/15 12:57:59;;;;;;;70.32;32.78;;;;;;;;;;5038781;28;20025;-95
2021/01/15 13:00:25;;;;;;;66.85;32.90;;;;;;;;;;5038817;28;20033;-94
2021/01/15 13:02:53;;;;;;;49.97;23.95;;;;;;;;;;5038322;28;20120;-95
2021/01/15 13:05:22;;;;;;;62.63;30.42;;;;;;;;;;5039020;28;20021;-94
2021/01/15 13:32:53;;;;;;;69.18;29.17;;;;;;;;;;5933429;23;19921;-96
2021/01/15 13:35:39;;;;;;;46.58;24.20;;;;;;;;;;5041946;28;20324;-80
2021/01/15 13:38:08;;;;;;;35.95;20.90;;;;;;;;;;5037538;28;20071;-79
2021/01/15 13:40:34;;;;;;;43.40;22.77;;;;;;;;;;5037714;28;20068;-81
2021/01/15 13:43:01;;;;;;;45.88;25.10;;;;;;;;;;5037295;28;20083;-80
2021/01/15 13:45:48;;;;;;;46.78;26.48;;;;;;;;;;5027592;28;20096;-96
2021/01/15 13:48:14;;;;;;;38.65;21.55;;;;;;;;;;4985379;28;20085;-96
2021/01/15 13:50:54;;;;;;;40.50;21.35;;;;;;;;;;4965089;28;20073;-96
2021/01/15 13:53:23;;;;;;;44.40;24.55;;;;;;;;;;4961429;29;20043;-95
2021/01/15 13:55:53;;;;;;;44.55;22.85;;;;;;;;;;4958365;29;20110;-94
2021/01/15 13:58:20;;;;;;;49.33;24.35;;;;;;;;;;4960795;29;20023;-96
2021/01/15 14:00:50;;;;;;;48.45;24.40;;;;;;;;;;4962065;29;20418;-96
2021/01/15 14:03:36;;;;;;;41.60;22.10;;;;;;;;;;4960414;29;20031;-96
2021/01/15 14:06:02;;;;;;;48.35;25.52;;;;;;;;;;4949522;29;20106;-96
2021/01/15 14:08:28;;;;;;;50.25;24.88;;;;;;;;;;4946120;29;20078;-96
2021/01/15 14:11:13;;;;;;;47.10;25.63;;;;;;;;;;4961043;29;20042;-96
2021/01/15 14:13:39;;;;;;;52.10;27.58;;;;;;;;;;4963063;29;20051;-96
2021/01/15 14:16:07;;;;;;;57.28;29.17;;;;;;;;;;4964258;29;20039;-96
2021/01/15 14:49:07;;;;;;;88.28;44.95;;;;;;;;;;5740315;23;20242;-89
2021/01/15 14:51:34;;;;;;;80.88;42.97;;;;;;;;;;5042758;28;20088;-94
2021/01/15 15:25:55;;;;;;;95.70;42.63;;;;;;;;;;5297144;23;20128;-95
2021/01/15 16:34:07;;;;;;;23.33;13.07;;;;;;;;;;5383718;23;20084;-96
2021/01/15 16:50:29;;;;;;;25.85;14.20;;;;;;;;;;5452155;23;20089;-96
2021/01/15 17:00:44;;;;;;;28.40;13.25;;;;;;;;;;5101851;23;20041;-95
2021/01/15 17:03:10;;;;;;;27.08;14.13;;;;;;;;;;5021094;28;20124;-95
2021/01/15 17:05:41;;;;;;;29.25;13.80;;;;;;;;;;5040088;28;20028;-95
2021/01/15 17:08:07;;;;;;;29.70;14.65;;;;;;;;;;5023254;28;20071;-96
2021/01/15 17:10:48;;;;;;;26.73;13.60;;;;;;;;;;5042225;28;20033;-96
2021/01/15 17:13:17;;;;;;;27.88;13.40;;;;;;;;;;5042331;28;20049;-96
2021/01/15 17:15:51;;;;;;;27.58;13.40;;;;;;;;;;5048579;28;20035;-96
2021/01/15 17:18:29;;;;;;;24.50;12.27;;;;;;;;;;5029526;28;20420;-95
2021/01/15 17:20:55;;;;;;;23.95;12.88;;;;;;;;;;5027293;28;20021;-96
2021/01/15 17:23:41;;;;;;;23.02;11.55;;;;;;;;;;5003752;28;20022;-96
2021/01/15 17:26:11;;;;;;;21.55;11.60;;;;;;;;;;5002614;28;20030;-96
2021/01/15 17:28:37;;;;;;;24.08;12.82;;;;;;;;;;5002443;28;20042;-95
2021/01/15 17:31:05;;;;;;;28.40;15.10;;;;;;;;;;4986071;28;20025;-96
2021/01/15 17:33:32;;;;;;;30.98;16.38;;;;;;;;;;4984570;28;20038;-96
2021/01/15 17:35:58;;;;;;;29.50;16.05;;;;;;;;;;4985094;28;20436;-95
2021/01/15 17:38:29;;;;;;;35.70;17.60;;;;;;;;;;5000815;28;20038;-95
2021/01/15 17:41:01;;;;;;;31.20;15.25;;;;;;;;;;5001195;28;20030;-96
2021/01/15 17:43:28;;;;;;;27.90;14.13;;;;;;;;;;4985310;28;20050;-96
2021/01/15 17:45:54;;;;;;;32.67;15.00;;;;;;;;;;4999922;28;20054;-96
2021/01/15 17:48:21;;;;;;;25.60;14.02;;;;;;;;;;4983825;28;20117;-96
2021/01/15 17:50:47;;;;;;;29.45;15.35;;;;;;;;;;4983553;28;20050;-95
2021/01/15 17:53:13;;;;;;;32.80;15.02;;;;;;;;;;4998991;28;20429;-96
2021/01/15 17:55:45;;;;;;;26.38;13.63;;;;;;;;;;5020703;28;20164;-96
2021/01/15 17:58:13;;;;;;;27.00;13.85;;;;;;;;;;5039836;28;20022;-95
2021/01/15 18:00:39;;;;;;;28.30;14.95;;;;;;;;;;5041694;28;20041;-96
2021/01/15 18:03:06;;;;;;;24.67;13.30;;;;;;;;;;5042276;28;20023;-95
2021/01/15 18:05:34;;;;;;;28.40;14.05;;;;;;;;;;5038516;28;20025;-95
2021/01/15 18:08:00;;;;;;;29.05;13.88;;;;;;;;;;5004134;28;20044;-95
2021/01/15 18:10:27;;;;;;;26.65;14.02;;;;;;;;;;5037622;28;20037;-95
2021/01/15 18:12:53;;;;;;;31.08;14.52;;;;;;;;;;5036375;28;20416;-95
2021/01/15 18:15:19;;;;;;;30.40;15.50;;;;;;;;;;5037828;28;20104;-95
2021/01/15 18:17:48;;;;;;;29.05;15.48;;;;;;;;;;5037907;28;20794;-96
2021/01/15 18:20:15;;;;;;;28.55;14.05;;;;;;;;;;5038130;28;20369;-95
2021/01/15 18:22:43;;;;;;;24.15;13.55;;;;;;;;;;5037986;28;20037;-96
2021/01/15 18:25:09;;;;;;;23.60;12.82;;;;;;;;;;5037785;28;20113;-89
2021/01/15 18:33:43;;;;;;;26.98;14.43;;;;;;;;;;5037630;28;20084;-87
2021/01/15 18:36:13;;;;;;;23.70;13.35;;;;;;;;;;5037612;28;20018;-88
2021/01/15 18:38:42;;;;;;;28.05;13.73;;;;;;;;;;5037189;28;20026;-87
2021/01/15 18:44:12;;;;;;;28.98;13.65;;;;;;;;;;5037366;28;20037;-87
2021/01/15 18:46:38;;;;;;;27.70;14.38;;;;;;;;;;5037267;28;20029;-88
2021/01/15 18:49:07;;;;;;;34.28;15.77;;;;;;;;;;5036056;28;20041;-87
2021/01/15 20:04:18;;;;;;;44.83;23.38;;;;;;;;;;5035162;23;20345;-90
2021/01/15 20:06:47;;;;;;;56.05;26.65;;;;;;;;;;5000423;28;20420;-91
2021/01/15 20:09:13;;;;;;;76.38;32.03;;;;;;;;;;4983282;28;20325;-91
2021/01/15 20:11:39;;;;;;;66.97;31.23;;;;;;;;;;5000739;28;20026;-90
2021/01/15 20:14:06;;;;;;;68.47;31.52;;;;;;;;;;5000290;28;20022;-92
2021/01/15 20:16:34;;;;;;;58.25;28.65;;;;;;;;;;5001232;28;20023;-88
2021/01/15 20:19:00;;;;;;;44.83;21.85;;;;;;;;;;4999034;28;20046;-89
2021/01/15 20:21:29;;;;;;;38.30;19.70;;;;;;;;;;4996335;28;20027;-91
2021/01/15 20:59:31;;;;;;;34.25;17.27;;;;;;;;;;5028386;23;20065;-90
2021/01/15 21:02:03;;;;;;;31.70;17.38;;;;;;;;;;5002111;28;20031;-90
2021/01/15 21:04:29;;;;;;;32.47;16.70;;;;;;;;;;5004413;28;20054;-91
2021/01/15 21:06:56;;;;;;;33.22;16.50;;;;;;;;;;5001515;28;20034;-91
2021/01/15 21:09:23;;;;;;;32.83;16.55;;;;;;;;;;5018844;28;20046;-90
2021/01/15 21:11:49;;;;;;;33.75;16.42;;;;;;;;;;5015741;28;20312;-90
2021/01/15 21:17:00;;;;;;;30.05;15.82;;;;;;;;;;4999779;28;20136;-90
2021/01/15 21:22:17;;;;;;;34.38;16.95;;;;;;;;;;5029340;23;20061;-91
